Time;durP1;ratioP1;P1;durP2;ratioP2;P2;SDS_P1;SDS_P2;PMS_P1;PMS_P2;Temp;Humidity;BMP_temperature;BMP_pressure;BME280_temperature;BME280_humidity;BME280_pressure;Samples;Min_cycle;Max_cycle;Signal;HPM_P1;HPM_P2
2021/01/25 00:04:07;;;;;;;6.70;2.17;;;;;;;;;;10367173;28;20298;-75
2021/01/25 00:09:09;;;;;;;5.40;1.47;;;;;;;;;;10353697;28;20217;-75
2021/01/25 00:14:11;;;;;;;0.77;0.47;;;;;;;;;;10369893;28;20202;-74
2021/01/25 00:19:13;;;;;;;3.17;1.53;;;;;;;;;;10363282;28;20301;-75
2021/01/25 00:24:15;;;;;;;7.70;2.67;;;;;;;;;;10371074;28;20711;-75
2021/01/25 00:29:17;;;;;;;2.87;1.17;;;;;;;;;;10366907;28;20234;-74
2021/01/25 00:34:18;;;;;;;3.97;1.80;;;;;;;;;;10360273;28;20194;-73
2021/01/25 00:39:20;;;;;;;5.33;2.00;;;;;;;;;;10358660;28;21506;-72
2021/01/25 00:44:23;;;;;;;5.20;2.23;;;;;;;;;;10360962;28;20206;-72
2021/01/25 00:49:24;;;;;;;5.77;2.20;;;;;;;;;;10362102;28;20273;-74
2021/01/25 00:54:26;;;;;;;5.83;1.80;;;;;;;;;;10362938;28;20273;-73
2021/01/25 00:59:28;;;;;;;3.63;1.57;;;;;;;;;;10362415;28;20218;-73
2021/01/25 01:04:30;;;;;;;4.60;1.50;;;;;;;;;;10352981;28;20274;-71
2021/01/25 01:09:32;;;;;;;2.17;1.30;;;;;;;;;;10365450;28;20277;-74
2021/01/25 01:14:34;;;;;;;4.70;1.83;;;;;;;;;;10365224;28;20216;-74
2021/01/25 01:19:36;;;;;;;6.03;1.90;;;;;;;;;;10357698;28;20574;-73
2021/01/25 01:24:37;;;;;;;2.40;1.13;;;;;;;;;;10361081;28;20195;-72
2021/01/25 01:29:39;;;;;;;5.70;2.13;;;;;;;;;;10354774;28;20678;-73
2021/01/25 01:34:41;;;;;;;2.57;0.77;;;;;;;;;;10358764;28;20805;-74
2021/01/25 01:39:43;;;;;;;2.93;1.30;;;;;;;;;;10363338;28;20297;-73
2021/01/25 01:44:45;;;;;;;2.13;0.77;;;;;;;;;;10363031;28;20531;-74
2021/01/25 01:49:47;;;;;;;2.53;1.07;;;;;;;;;;10363262;28;20290;-74
2021/01/25 01:54:50;;;;;;;4.77;1.50;;;;;;;;;;10358744;28;20203;-74
2021/01/25 01:59:52;;;;;;;4.37;1.87;;;;;;;;;;10350672;28;20238;-73
2021/01/25 02:04:54;;;;;;;1.27;0.60;;;;;;;;;;10366094;28;20206;-73
2021/01/25 02:09:58;;;;;;;10.10;1.33;;;;;;;;;;10358465;28;20749;-74
2021/01/25 02:15:03;;;;;;;3.57;1.17;;;;;;;;;;10354531;28;20305;-74
2021/01/25 02:20:06;;;;;;;3.93;1.67;;;;;;;;;;10360010;28;20241;-73
2021/01/25 02:25:12;;;;;;;2.60;1.40;;;;;;;;;;10360923;28;20356;-73
2021/01/25 02:30:15;;;;;;;5.47;1.57;;;;;;;;;;10360811;28;20254;-74
2021/01/25 02:35:18;;;;;;;5.13;2.07;;;;;;;;;;10355500;28;20191;-74
2021/01/25 02:40:20;;;;;;;5.30;1.90;;;;;;;;;;10354629;28;20608;-73
2021/01/25 02:45:23;;;;;;;4.17;1.50;;;;;;;;;;10364479;28;20222;-74
2021/01/25 02:50:25;;;;;;;4.07;1.60;;;;;;;;;;10342819;28;20210;-72
2021/01/25 02:55:26;;;;;;;2.30;0.70;;;;;;;;;;10356461;28;20535;-74
2021/01/25 03:00:29;;;;;;;0.70;0.43;;;;;;;;;;10357672;28;20264;-74
2021/01/25 03:05:31;;;;;;;3.50;1.03;;;;;;;;;;10356219;28;20615;-72
2021/01/25 03:10:32;;;;;;;1.50;0.73;;;;;;;;;;10359746;28;20218;-73
2021/01/25 03:15:35;;;;;;;4.33;1.40;;;;;;;;;;10350637;28;20679;-73
2021/01/25 03:20:37;;;;;;;3.33;1.43;;;;;;;;;;10357569;28;20210;-74
2021/01/25 03:25:38;;;;;;;3.97;1.57;;;;;;;;;;10359002;28;20201;-73
2021/01/25 03:30:41;;;;;;;0.90;0.33;;;;;;;;;;10360607;28;20705;-72
2021/01/25 03:35:43;;;;;;;3.83;1.07;;;;;;;;;;10342028;28;20241;-72
2021/01/25 03:40:44;;;;;;;5.87;1.07;;;;;;;;;;10354172;28;20321;-73
2021/01/25 03:45:47;;;;;;;3.00;1.07;;;;;;;;;;10362623;28;20198;-72
2021/01/25 03:50:48;;;;;;;2.17;1.03;;;;;;;;;;10369308;28;20246;-73
2021/01/25 03:55:50;;;;;;;4.37;1.33;;;;;;;;;;10346186;28;20198;-74
2021/01/25 04:00:53;;;;;;;6.33;2.00;;;;;;;;;;10348702;28;20222;-73
2021/01/25 04:05:54;;;;;;;4.87;1.73;;;;;;;;;;10365284;28;20198;-74
2021/01/25 04:10:56;;;;;;;0.90;0.50;;;;;;;;;;10364658;28;20369;-74
2021/01/25 04:15:58;;;;;;;3.47;1.50;;;;;;;;;;10373422;28;20254;-74
2021/01/25 04:21:00;;;;;;;2.23;1.40;;;;;;;;;;10365083;28;20214;-72
2021/01/25 04:26:04;;;;;;;4.33;1.07;;;;;;;;;;10363370;28;20289;-74
2021/01/25 04:31:07;;;;;;;8.03;2.60;;;;;;;;;;10356166;28;20211;-75
2021/01/25 04:36:09;;;;;;;5.60;2.10;;;;;;;;;;10362491;28;20218;-72
2021/01/25 04:41:11;;;;;;;5.50;1.77;;;;;;;;;;10363234;28;20597;-72
2021/01/25 04:46:14;;;;;;;3.77;1.97;;;;;;;;;;10361525;28;20289;-73
2021/01/25 04:51:16;;;;;;;2.47;1.20;;;;;;;;;;10364960;28;20222;-73
2021/01/25 04:56:18;;;;;;;1.90;1.10;;;;;;;;;;10359159;28;20233;-73
2021/01/25 05:01:20;;;;;;;3.80;1.30;;;;;;;;;;10361920;28;20216;-73
2021/01/25 05:06:22;;;;;;;2.57;1.10;;;;;;;;;;10366226;28;20584;-73
2021/01/25 05:11:23;;;;;;;2.47;1.00;;;;;;;;;;10347987;28;20242;-74
2021/01/25 05:16:29;;;;;;;3.20;1.00;;;;;;;;;;10360323;28;20265;-72
2021/01/25 05:21:32;;;;;;;1.30;0.57;;;;;;;;;;10361790;28;20296;-74
2021/01/25 05:26:34;;;;;;;2.80;0.70;;;;;;;;;;10362695;28;20503;-72
2021/01/25 05:31:37;;;;;;;3.60;1.70;;;;;;;;;;10363503;28;20302;-73
2021/01/25 05:36:41;;;;;;;3.10;1.30;;;;;;;;;;10363352;28;20187;-74
2021/01/25 05:41:53;;;;;;;4.37;1.50;;;;;;;;;;10364639;28;20218;-74
2021/01/25 05:47:05;;;;;;;0.67;0.30;;;;;;;;;;10361475;28;20198;-73
2021/01/25 05:52:15;;;;;;;3.43;1.37;;;;;;;;;;10355320;28;20646;-73
2021/01/25 05:57:16;;;;;;;1.60;0.57;;;;;;;;;;10363045;28;20381;-72
2021/01/25 06:02:19;;;;;;;1.23;0.43;;;;;;;;;;10354356;28;20210;-74
2021/01/25 06:07:21;;;;;;;4.00;1.23;;;;;;;;;;10362191;28;20762;-74
2021/01/25 06:12:26;;;;;;;0.77;0.43;;;;;;;;;;10349707;28;20241;-74
2021/01/25 06:17:31;;;;;;;5.80;1.30;;;;;;;;;;10351471;28;20270;-74
2021/01/25 06:22:34;;;;;;;4.23;1.40;;;;;;;;;;10364323;28;20222;-73
2021/01/25 06:27:37;;;;;;;3.73;1.20;;;;;;;;;;10357472;28;20262;-75
2021/01/25 06:32:41;;;;;;;4.63;1.30;;;;;;;;;;10364431;28;20214;-76
2021/01/25 06:37:42;;;;;;;6.67;1.47;;;;;;;;;;10355870;28;20230;-73
2021/01/25 06:42:44;;;;;;;3.27;1.17;;;;;;;;;;10360387;28;20312;-73
2021/01/25 06:47:47;;;;;;;4.23;1.47;;;;;;;;;;10363550;28;20273;-73
2021/01/25 06:52:50;;;;;;;3.40;1.40;;;;;;;;;;10335545;28;20424;-74
2021/01/25 06:57:51;;;;;;;3.30;1.00;;;;;;;;;;10357569;28;20823;-74
2021/01/25 07:02:55;;;;;;;9.30;1.53;;;;;;;;;;10359868;28;20682;-74
2021/01/25 07:08:16;;;;;;;5.53;1.30;;;;;;;;;;10363889;28;20297;-74
2021/01/25 07:13:17;;;;;;;2.00;1.20;;;;;;;;;;10342634;28;20658;-75
2021/01/25 07:18:21;;;;;;;5.80;1.30;;;;;;;;;;10356704;28;20194;-76
2021/01/25 07:23:23;;;;;;;4.90;1.37;;;;;;;;;;10353371;28;20613;-72
2021/01/25 07:28:26;;;;;;;3.00;1.40;;;;;;;;;;10359281;28;20595;-72
2021/01/25 07:33:28;;;;;;;4.37;1.80;;;;;;;;;;10352879;28;20211;-73
2021/01/25 07:38:30;;;;;;;4.20;1.40;;;;;;;;;;10358099;28;20198;-70
2021/01/25 07:43:32;;;;;;;3.47;1.17;;;;;;;;;;10367166;28;20500;-72
2021/01/25 07:48:34;;;;;;;3.50;1.30;;;;;;;;;;10365301;28;20209;-72
2021/01/25 07:53:36;;;;;;;2.83;1.30;;;;;;;;;;10359612;28;20321;-73
2021/01/25 07:58:38;;;;;;;7.37;1.97;;;;;;;;;;10358952;28;20187;-73
2021/01/25 08:03:42;;;;;;;5.10;1.80;;;;;;;;;;10359163;28;20260;-74
2021/01/25 08:09:04;;;;;;;3.87;1.40;;;;;;;;;;10363128;28;20297;-73
2021/01/25 08:14:16;;;;;;;1.83;0.80;;;;;;;;;;10364706;28;20186;-73
2021/01/25 08:19:26;;;;;;;3.43;1.20;;;;;;;;;;10362258;28;20225;-72
2021/01/25 08:24:27;;;;;;;2.57;1.30;;;;;;;;;;10356805;28;20191;-73
2021/01/25 08:29:30;;;;;;;1.73;0.70;;;;;;;;;;10361785;28;21055;-72
2021/01/25 08:34:33;;;;;;;5.33;1.10;;;;;;;;;;10338691;28;20261;-72
2021/01/25 08:39:39;;;;;;;1.27;0.70;;;;;;;;;;10363152;28;20722;-74
2021/01/25 08:44:48;;;;;;;1.70;0.70;;;;;;;;;;10345228;28;20485;-74
2021/01/25 08:49:50;;;;;;;2.53;1.20;;;;;;;;;;10346927;28;20222;-74
2021/01/25 08:54:52;;;;;;;4.00;1.40;;;;;;;;;;10334501;28;20214;-72
2021/01/25 08:59:55;;;;;;;4.70;1.33;;;;;;;;;;10341359;28;20740;-73
2021/01/25 09:04:58;;;;;;;3.17;1.30;;;;;;;;;;10362789;28;20204;-73
2021/01/25 09:10:00;;;;;;;3.73;1.40;;;;;;;;;;10346052;28;20214;-72
2021/01/25 09:15:09;;;;;;;5.10;1.73;;;;;;;;;;10359549;28;20194;-73
2021/01/25 09:20:11;;;;;;;3.47;1.50;;;;;;;;;;10361445;28;20381;-73
2021/01/25 09:25:14;;;;;;;3.60;1.27;;;;;;;;;;10340574;28;20195;-73
2021/01/25 09:30:17;;;;;;;3.73;1.20;;;;;;;;;;10353101;28;20277;-73
2021/01/25 09:35:19;;;;;;;4.10;1.57;;;;;;;;;;10343644;28;20207;-73
2021/01/25 09:40:21;;;;;;;4.70;1.40;;;;;;;;;;10360817;28;20230;-74
2021/01/25 09:45:23;;;;;;;2.53;1.10;;;;;;;;;;10338721;28;20202;-73
2021/01/25 09:50:25;;;;;;;8.40;3.40;;;;;;;;;;10342394;28;20314;-74
2021/01/25 09:55:26;;;;;;;6.73;2.80;;;;;;;;;;10351220;28;20214;-72
2021/01/25 10:00:29;;;;;;;4.40;1.50;;;;;;;;;;10350694;28;21167;-73
2021/01/25 10:05:30;;;;;;;3.30;1.57;;;;;;;;;;10358575;28;20269;-74
2021/01/25 10:10:32;;;;;;;3.33;1.40;;;;;;;;;;10356067;28;20249;-72
2021/01/25 10:15:35;;;;;;;2.43;1.20;;;;;;;;;;10339712;28;20223;-74
2021/01/25 10:20:36;;;;;;;4.03;1.50;;;;;;;;;;10344159;28;20305;-73
2021/01/25 10:25:38;;;;;;;5.90;2.20;;;;;;;;;;10343674;28;20191;-73
2021/01/25 10:30:41;;;;;;;7.10;2.23;;;;;;;;;;10354388;28;20305;-73
2021/01/25 10:35:43;;;;;;;6.60;2.07;;;;;;;;;;10343050;28;20289;-73
2021/01/25 10:40:44;;;;;;;5.77;2.17;;;;;;;;;;10361194;28;20896;-72
2021/01/25 10:45:47;;;;;;;6.50;2.20;;;;;;;;;;10351913;28;20612;-74
2021/01/25 10:50:48;;;;;;;5.00;2.10;;;;;;;;;;10337483;28;20735;-72
2021/01/25 10:55:50;;;;;;;5.13;2.00;;;;;;;;;;10356456;28;20299;-73
2021/01/25 11:00:54;;;;;;;4.50;2.23;;;;;;;;;;10355591;28;20283;-72
2021/01/25 11:05:55;;;;;;;9.70;3.10;;;;;;;;;;10363553;28;20244;-72
2021/01/25 11:10:57;;;;;;;7.67;2.40;;;;;;;;;;10365029;28;20317;-72
2021/01/25 11:15:59;;;;;;;12.07;2.60;;;;;;;;;;10368742;28;20198;-73
2021/01/25 11:21:03;;;;;;;6.00;2.20;;;;;;;;;;10368854;28;20612;-72
2021/01/25 11:26:05;;;;;;;5.37;2.57;;;;;;;;;;10370982;28;20245;-72
2021/01/25 11:31:07;;;;;;;9.60;3.63;;;;;;;;;;10367580;28;20645;-72
2021/01/25 11:36:09;;;;;;;7.50;3.00;;;;;;;;;;10369918;28;20214;-72
2021/01/25 11:41:11;;;;;;;6.20;2.43;;;;;;;;;;10363044;28;20229;-73
2021/01/25 11:46:14;;;;;;;5.60;2.20;;;;;;;;;;10375775;28;20244;-72
2021/01/25 11:51:15;;;;;;;4.70;2.10;;;;;;;;;;10411625;28;20225;-73
2021/01/25 11:56:17;;;;;;;4.77;2.57;;;;;;;;;;10400195;28;20445;-72
2021/01/25 12:01:20;;;;;;;6.10;2.53;;;;;;;;;;10392062;28;20225;-72
2021/01/25 12:06:22;;;;;;;5.97;2.87;;;;;;;;;;10382995;28;20257;-73
2021/01/25 12:11:23;;;;;;;7.60;3.40;;;;;;;;;;10353398;28;20233;-73
2021/01/25 12:16:27;;;;;;;5.73;2.60;;;;;;;;;;10361568;28;20638;-73
2021/01/25 12:21:29;;;;;;;5.83;2.60;;;;;;;;;;10345355;28;20207;-73
2021/01/25 12:26:31;;;;;;;7.00;3.07;;;;;;;;;;10367376;28;20199;-73
2021/01/25 12:31:33;;;;;;;4.27;2.40;;;;;;;;;;10362589;28;20218;-73
2021/01/25 12:36:36;;;;;;;7.27;3.43;;;;;;;;;;10363197;28;20226;-73
2021/01/25 12:41:38;;;;;;;5.60;2.70;;;;;;;;;;10338997;28;20229;-73
2021/01/25 12:46:42;;;;;;;6.80;2.87;;;;;;;;;;10346586;28;20644;-73
2021/01/25 12:51:44;;;;;;;5.70;2.70;;;;;;;;;;10351795;28;20320;-73
2021/01/25 12:56:46;;;;;;;9.50;3.40;;;;;;;;;;10363534;28;20670;-74
2021/01/25 13:01:49;;;;;;;7.73;3.30;;;;;;;;;;10356756;28;20202;-73
2021/01/25 13:06:52;;;;;;;6.10;3.07;;;;;;;;;;10365868;28;20191;-73
2021/01/25 13:11:53;;;;;;;7.27;3.30;;;;;;;;;;10363877;28;20318;-73
2021/01/25 13:16:55;;;;;;;7.37;3.20;;;;;;;;;;10353551;28;20682;-73
2021/01/25 13:21:57;;;;;;;6.73;3.27;;;;;;;;;;10369569;28;20288;-73
2021/01/25 13:26:59;;;;;;;5.97;3.30;;;;;;;;;;10362976;28;20218;-73
2021/01/25 13:32:03;;;;;;;6.70;3.90;;;;;;;;;;10358383;28;20236;-73
2021/01/25 13:37:05;;;;;;;7.80;4.10;;;;;;;;;;10362092;28;20237;-73
2021/01/25 13:42:07;;;;;;;8.03;3.80;;;;;;;;;;10362044;28;20728;-72
2021/01/25 13:47:09;;;;;;;7.90;4.00;;;;;;;;;;10344350;28;20202;-72
2021/01/25 13:52:11;;;;;;;9.80;4.20;;;;;;;;;;10355800;28;20214;-75
2021/01/25 13:57:13;;;;;;;8.67;4.40;;;;;;;;;;10361295;28;20663;-74
2021/01/25 14:02:15;;;;;;;7.87;4.50;;;;;;;;;;10341049;28;20206;-72
2021/01/25 14:07:18;;;;;;;8.07;4.27;;;;;;;;;;10359477;28;20225;-72
2021/01/25 14:12:20;;;;;;;7.97;4.50;;;;;;;;;;10366891;28;20214;-73
2021/01/25 14:17:23;;;;;;;8.30;4.20;;;;;;;;;;10362690;28;20187;-74
2021/01/25 14:22:25;;;;;;;8.23;4.53;;;;;;;;;;10341964;28;20218;-74
2021/01/25 14:27:27;;;;;;;8.50;5.00;;;;;;;;;;10353454;28;20206;-72
2021/01/25 14:32:29;;;;;;;9.37;5.13;;;;;;;;;;10362603;28;20646;-71
2021/01/25 14:37:31;;;;;;;10.00;5.10;;;;;;;;;;10357506;28;20590;-74
2021/01/25 14:42:33;;;;;;;10.50;5.17;;;;;;;;;;10359653;28;20234;-72
2021/01/25 14:47:38;;;;;;;9.40;5.30;;;;;;;;;;10359406;28;21045;-73
2021/01/25 14:52:40;;;;;;;10.33;5.40;;;;;;;;;;10359130;28;20698;-73
2021/01/25 14:57:42;;;;;;;13.17;5.20;;;;;;;;;;10358413;28;20191;-73
2021/01/25 15:02:46;;;;;;;11.07;5.70;;;;;;;;;;10358164;28;20265;-73
2021/01/25 15:07:47;;;;;;;10.33;5.57;;;;;;;;;;10355272;28;20285;-72
2021/01/25 15:12:49;;;;;;;11.30;5.83;;;;;;;;;;10357965;28;20217;-72
2021/01/25 15:17:52;;;;;;;10.27;6.07;;;;;;;;;;10335809;28;20202;-73
2021/01/25 15:22:55;;;;;;;12.00;6.20;;;;;;;;;;10361858;28;20242;-73
2021/01/25 15:28:13;;;;;;;11.03;6.40;;;;;;;;;;10356280;28;20266;-70
2021/01/25 15:33:16;;;;;;;9.90;6.00;;;;;;;;;;10347412;28;20469;-73
2021/01/25 15:38:19;;;;;;;9.73;5.77;;;;;;;;;;10361455;28;20244;-73
2021/01/25 15:43:20;;;;;;;10.97;6.60;;;;;;;;;;10335461;28;20281;-73
2021/01/25 15:48:23;;;;;;;11.93;6.73;;;;;;;;;;10363053;28;20681;-72
2021/01/25 15:53:25;;;;;;;11.37;6.67;;;;;;;;;;10349190;28;20273;-73
2021/01/25 15:58:27;;;;;;;9.93;6.43;;;;;;;;;;10359960;28;20187;-73
2021/01/25 16:03:29;;;;;;;11.90;6.63;;;;;;;;;;10357963;28;20215;-73
2021/01/25 16:08:31;;;;;;;11.97;7.50;;;;;;;;;;10368530;28;20211;-72
2021/01/25 16:13:34;;;;;;;14.00;7.70;;;;;;;;;;10363489;28;20218;-73
2021/01/25 16:18:37;;;;;;;12.30;7.17;;;;;;;;;;10339001;28;20192;-72
2021/01/25 16:23:39;;;;;;;12.17;7.77;;;;;;;;;;10365128;28;20297;-72
2021/01/25 16:28:41;;;;;;;9.73;5.60;;;;;;;;;;10343778;28;20702;-72
2021/01/25 16:33:43;;;;;;;9.57;5.20;;;;;;;;;;10347667;28;20633;-74
2021/01/25 16:38:45;;;;;;;8.50;4.30;;;;;;;;;;10358602;28;20233;-74
2021/01/25 16:43:46;;;;;;;8.63;4.70;;;;;;;;;;10361962;28;20221;-74
2021/01/25 16:48:49;;;;;;;7.77;4.10;;;;;;;;;;10355372;28;20324;-74
2021/01/25 16:53:51;;;;;;;7.03;3.50;;;;;;;;;;10352226;28;20225;-75
2021/01/25 16:58:53;;;;;;;6.53;3.10;;;;;;;;;;10363326;28;20241;-74
2021/01/25 17:03:57;;;;;;;5.73;2.90;;;;;;;;;;10352158;28;20260;-74
2021/01/25 17:08:59;;;;;;;7.17;3.20;;;;;;;;;;10333854;28;20322;-74
2021/01/25 17:14:03;;;;;;;15.30;12.13;;;;;;;;;;10327181;28;20570;-73
2021/01/25 17:19:06;;;;;;;7.80;3.93;;;;;;;;;;10348185;28;20195;-73
2021/01/25 17:24:09;;;;;;;9.03;4.37;;;;;;;;;;10335083;28;20208;-74
2021/01/25 17:29:10;;;;;;;9.83;5.13;;;;;;;;;;10342947;28;20714;-72
2021/01/25 17:34:13;;;;;;;8.60;4.80;;;;;;;;;;10349579;28;20206;-73
2021/01/25 17:39:15;;;;;;;9.60;5.00;;;;;;;;;;10370550;28;20285;-72
2021/01/25 17:44:16;;;;;;;7.33;3.50;;;;;;;;;;10360080;28;20209;-72
2021/01/25 17:49:19;;;;;;;6.93;3.67;;;;;;;;;;10328123;28;20305;-72
2021/01/25 17:54:21;;;;;;;6.17;2.93;;;;;;;;;;10342515;28;20293;-73
2021/01/25 17:59:23;;;;;;;6.10;2.97;;;;;;;;;;10343484;28;20214;-73
2021/01/25 18:04:26;;;;;;;7.40;3.27;;;;;;;;;;10343583;28;20193;-75
2021/01/25 18:09:27;;;;;;;7.20;3.60;;;;;;;;;;10352300;28;20232;-73
2021/01/25 18:14:29;;;;;;;6.70;3.20;;;;;;;;;;10331679;28;20202;-73
2021/01/25 18:19:32;;;;;;;7.73;3.77;;;;;;;;;;10349166;28;20614;-74
2021/01/25 18:24:33;;;;;;;7.47;3.57;;;;;;;;;;10351885;28;20551;-73
2021/01/25 18:29:35;;;;;;;7.97;3.70;;;;;;;;;;10347973;28;20412;-75
2021/01/25 18:34:37;;;;;;;10.07;4.97;;;;;;;;;;10359788;28;20194;-74
2021/01/25 18:39:39;;;;;;;5.30;2.47;;;;;;;;;;10351164;28;20300;-75
2021/01/25 18:44:42;;;;;;;6.97;2.80;;;;;;;;;;10349483;28;20639;-75
2021/01/25 18:49:45;;;;;;;6.67;3.00;;;;;;;;;;10354881;28;20229;-75
2021/01/25 18:54:46;;;;;;;8.07;4.30;;;;;;;;;;10350674;28;20206;-74
2021/01/25 18:59:48;;;;;;;9.83;5.07;;;;;;;;;;10358256;28;20238;-75
2021/01/25 19:04:50;;;;;;;9.63;5.00;;;;;;;;;;10338273;28;20202;-74
2021/01/25 19:09:52;;;;;;;9.90;5.43;;;;;;;;;;10353835;28;20225;-75
2021/01/25 19:14:53;;;;;;;11.63;5.87;;;;;;;;;;10335907;28;20187;-75
2021/01/25 19:19:56;;;;;;;10.47;6.13;;;;;;;;;;10342352;28;20223;-75
2021/01/25 19:24:57;;;;;;;12.47;6.97;;;;;;;;;;10350414;28;20201;-74
2021/01/25 19:29:59;;;;;;;10.27;5.20;;;;;;;;;;10361967;28;20246;-75
2021/01/25 19:35:03;;;;;;;9.80;5.37;;;;;;;;;;10336989;28;20195;-75
2021/01/25 19:40:06;;;;;;;8.13;4.10;;;;;;;;;;10343582;28;20241;-74
2021/01/25 19:45:09;;;;;;;9.50;5.33;;;;;;;;;;10330046;28;20199;-76
2021/01/25 19:50:13;;;;;;;8.67;4.93;;;;;;;;;;10357770;28;20222;-75
2021/01/25 19:55:17;;;;;;;8.00;3.97;;;;;;;;;;10353348;28;20190;-73
2021/01/25 20:00:21;;;;;;;6.90;3.70;;;;;;;;;;10365860;28;20219;-72
2021/01/25 20:05:23;;;;;;;9.20;5.00;;;;;;;;;;10364714;28;20187;-74
2021/01/25 20:10:26;;;;;;;10.03;5.33;;;;;;;;;;10367652;28;20395;-74
2021/01/25 20:15:29;;;;;;;9.80;4.97;;;;;;;;;;10340581;28;20198;-74
2021/01/25 20:20:32;;;;;;;11.57;5.70;;;;;;;;;;10360676;28;20202;-72
2021/01/25 20:25:35;;;;;;;8.50;4.60;;;;;;;;;;10362312;28;20663;-72
2021/01/25 20:30:37;;;;;;;8.93;4.83;;;;;;;;;;10360042;28;20245;-74
2021/01/25 20:35:39;;;;;;;10.47;6.43;;;;;;;;;;10370871;28;20682;-74
2021/01/25 20:40:41;;;;;;;9.97;5.87;;;;;;;;;;10367060;28;20283;-74
2021/01/25 20:45:46;;;;;;;10.40;6.00;;;;;;;;;;10363835;28;20202;-74
2021/01/25 20:50:49;;;;;;;10.30;6.10;;;;;;;;;;10355862;28;20253;-74
2021/01/25 20:55:51;;;;;;;10.90;6.43;;;;;;;;;;10364322;28;20222;-73
2021/01/25 21:00:53;;;;;;;9.23;5.10;;;;;;;;;;10358877;28;20688;-74
2021/01/25 21:05:55;;;;;;;11.70;6.37;;;;;;;;;;10364288;28;20282;-73
2021/01/25 21:10:57;;;;;;;10.67;6.63;;;;;;;;;;10362512;28;20218;-73
2021/01/25 21:15:59;;;;;;;12.87;6.10;;;;;;;;;;10357985;28;20751;-73
2021/01/25 21:21:03;;;;;;;10.37;6.13;;;;;;;;;;10342862;28;20247;-74
2021/01/25 21:26:05;;;;;;;10.70;6.50;;;;;;;;;;10364310;28;20289;-74
2021/01/25 21:31:06;;;;;;;12.13;6.60;;;;;;;;;;10362745;28;20309;-74
2021/01/25 21:36:09;;;;;;;10.37;5.63;;;;;;;;;;10358954;28;20209;-75
2021/01/25 21:41:14;;;;;;;11.57;5.73;;;;;;;;;;10336055;28;20225;-74
2021/01/25 21:46:15;;;;;;;10.73;6.80;;;;;;;;;;10354612;28;20277;-74
2021/01/25 21:51:18;;;;;;;11.37;6.07;;;;;;;;;;10378144;28;20265;-70
2021/01/25 21:56:20;;;;;;;12.93;7.60;;;;;;;;;;10354925;28;20273;-72
2021/01/25 22:01:22;;;;;;;13.43;7.40;;;;;;;;;;10358748;28;20218;-71
2021/01/25 22:06:25;;;;;;;11.27;6.00;;;;;;;;;;10361980;28;20224;-70
2021/01/25 22:11:26;;;;;;;9.17;4.57;;;;;;;;;;10360756;28;20228;-71
2021/01/25 22:16:28;;;;;;;10.63;5.03;;;;;;;;;;10359700;28;20292;-70
2021/01/25 22:21:31;;;;;;;10.50;4.80;;;;;;;;;;10360960;28;20210;-71
2021/01/25 22:26:32;;;;;;;8.83;4.30;;;;;;;;;;10357013;28;20233;-70
2021/01/25 22:31:34;;;;;;;9.23;4.70;;;;;;;;;;10359931;28;20686;-71
2021/01/25 22:36:36;;;;;;;8.37;4.00;;;;;;;;;;10362520;28;20191;-71
2021/01/25 22:41:38;;;;;;;8.83;4.63;;;;;;;;;;10361544;28;20206;-72
2021/01/25 22:46:39;;;;;;;8.40;3.97;;;;;;;;;;10359416;28;20194;-71
2021/01/25 22:51:42;;;;;;;10.60;5.43;;;;;;;;;;10362573;28;20234;-71
2021/01/25 22:56:44;;;;;;;9.80;5.40;;;;;;;;;;10361572;28;20247;-71
2021/01/25 23:01:46;;;;;;;10.57;5.27;;;;;;;;;;10371828;28;20214;-72
2021/01/25 23:06:48;;;;;;;9.20;4.97;;;;;;;;;;10370570;28;20206;-71
2021/01/25 23:11:50;;;;;;;8.07;4.13;;;;;;;;;;10346222;28;20213;-71
2021/01/25 23:16:52;;;;;;;11.07;5.43;;;;;;;;;;10369805;28;20627;-71
2021/01/25 23:21:55;;;;;;;8.03;4.20;;;;;;;;;;10376631;28;20238;-71
2021/01/25 23:26:57;;;;;;;10.13;5.20;;;;;;;;;;10379540;28;20642;-71
2021/01/25 23:31:59;;;;;;;9.80;5.00;;;;;;;;;;10392451;28;20245;-72
2021/01/25 23:37:03;;;;;;;7.20;3.30;;;;;;;;;;10394395;28;20202;-71
2021/01/25 23:42:05;;;;;;;10.40;6.00;;;;;;;;;;10376799;28;20226;-71
2021/01/25 23:47:07;;;;;;;7.63;3.73;;;;;;;;;;10391907;28;20285;-70
2021/01/25 23:52:09;;;;;;;7.77;3.83;;;;;;;;;;10379364;28;20284;-70
2021/01/25 23:57:11;;;;;;;8.03;3.77;;;;;;;;;;10373390;28;20726;-70
